| time (UTC) | temp C | wind direction | speed KPH | gust KPH | rain 1hr cm | rain 24hr cm | rain mn cm | humidity % | barometer mb |
| 20260506031531 | 17 | 112 | 3.2 | 4.8 | 0.00 | 0.00 | 0.00 | 64 | 1013.6 |
| 20260506024530 | 20 | 16 | 3.2 | 9.7 | 0.00 | 0.00 | 0.00 | 58 | 1013.2 |
| 20260506023029 | 20 | 26 | 1.6 | 8.0 | 0.00 | 0.00 | 0.00 | 55 | 1013.0 |
| 20260506021538 | 21 | 332 | 1.6 | 8.0 | 0.00 | 0.00 | 0.00 | 51 | 1013.0 |
| 20260506020111 | 23 | 308 | 4.8 | 11.3 | 0.00 | 0.00 | 0.00 | 46 | 1012.8 |
| 20260506014532 | 25 | 318 | 3.2 | 9.7 | 0.00 | 0.00 | 0.00 | 45 | 1012.7 |
| 20260506013107 | 26 | 295 | 6.4 | 16.1 | 0.00 | 0.00 | 0.00 | 43 | 1012.7 |
| 20260506011531 | 26 | 290 | 3.2 | 9.7 | 0.00 | 0.00 | 0.00 | 43 | 1012.6 |
| 20260506004534 | 26 | 217 | 6.4 | 14.5 | 0.00 | 0.00 | 0.00 | 44 | 1012.6 |
| 20260506003036 | 26 | 254 | 4.8 | 16.1 | 0.00 | 0.00 | 0.00 | 44 | 1012.6 |
| 20260506001541 | 26 | 254 | 8.0 | 20.9 | 0.00 | 0.00 | 0.00 | 43 | 1012.6 |
| 20260506000126 | 26 | 272 | 8.0 | 17.7 | 0.00 | 0.00 | 0.00 | 45 | 1012.6 |
| 20260505233032 | 26 | 281 | 6.4 | 11.3 | 0.00 | 0.00 | 0.00 | 45 | 1012.7 |
| 20260505230030 | 25 | 324 | 8.0 | 17.7 | 0.00 | 0.00 | 0.00 | 48 | 1012.8 |
| 20260505224652 | 25 | 312 | 6.4 | 16.1 | 0.00 | 0.00 | 0.00 | 49 | 1013.0 |
| 20260505223107 | 24 | 327 | 4.8 | 12.9 | 0.00 | 0.00 | 0.00 | 49 | 1013.1 |
| 20260505221606 | 24 | 307 | 6.4 | 16.1 | 0.00 | 0.00 | 0.00 | 49 | 1013.2 |
| 20260505220107 | 23 | 319 | 6.4 | 17.7 | 0.00 | 0.00 | 0.00 | 50 | 1013.3 |
| 20260505213028 | 23 | 333 | 6.4 | 17.7 | 0.00 | 0.00 | 0.00 | 50 | 1013.5 |
| 20260505211531 | 23 | 328 | 3.2 | 11.3 | 0.00 | 0.00 | 0.00 | 49 | 1013.5 |
| 20260505210106 | 24 | 301 | 6.4 | 14.5 | 0.00 | 0.00 | 0.00 | 48 | 1013.6 |
| 20260505204530 | 25 | 327 | 6.4 | 14.5 | 0.00 | 0.00 | 0.00 | 46 | 1013.7 |
| 20260505203032 | 25 | 307 | 6.4 | 14.5 | 0.00 | 0.00 | 0.00 | 46 | 1013.9 |
| 20260505194529 | 25 | 344 | 4.8 | 16.1 | 0.00 | 0.00 | 0.00 | 44 | 1014.1 |
| 20260505193054 | 26 | 308 | 6.4 | 17.7 | 0.00 | 0.00 | 0.00 | 44 | 1014.2 |
| 20260505191531 | 26 | 13 | 1.6 | 11.3 | 0.00 | 0.00 | 0.00 | 44 | 1014.2 |
| 20260505190032 | 25 | 8 | 1.6 | 9.7 | 0.00 | 0.00 | 0.00 | 44 | 1014.3 |
| 20260505184606 | 25 | 321 | 3.2 | 14.5 | 0.00 | 0.00 | 0.00 | 45 | 1014.4 |
| 20260505183106 | 23 | 348 | 4.8 | 14.5 | 0.00 | 0.00 | 0.00 | 47 | 1014.4 |
| 20260505181531 | 23 | 336 | 4.8 | 16.1 | 0.00 | 0.00 | 0.00 | 49 | 1014.5 |
| 20260505174536 | 23 | 299 | 6.4 | 14.5 | 0.00 | 0.00 | 0.00 | 49 | 1014.3 |
| 20260505173029 | 23 | 253 | 3.2 | 6.4 | 0.00 | 0.00 | 0.00 | 49 | 1014.3 |
| 20260505171529 | 23 | 74 | 3.2 | 8.0 | 0.00 | 0.00 | 0.00 | 50 | 1014.4 |
| 20260505170035 | 23 | 313 | 1.6 | 8.0 | 0.00 | 0.00 | 0.00 | 50 | 1014.4 |
| 20260505164536 | 23 | 10 | 0.0 | 6.4 | 0.00 | 0.00 | 0.00 | 51 | 1014.3 |
| 20260505163031 | 22 | 41 | 0.0 | 6.4 | 0.00 | 0.00 | 0.00 | 53 | 1014.3 |
| 20260505161530 | 22 | 93 | 0.0 | 6.4 | 0.00 | 0.00 | 0.00 | 55 | 1014.4 |
| 20260505160126 | 21 | 93 | 0.0 | 6.4 | 0.00 | 0.00 | 0.00 | 59 | 1014.4 |
| 20260505153107 | 18 | 61 | 0.0 | 4.8 | 0.00 | 0.00 | 0.00 | 76 | 1014.4 |
| 20260505151532 | 15 | 62 | 0.0 | 4.8 | 0.00 | 0.00 | 0.00 | 84 | 1014.5 |
| 20260505124530 | 6 | 135 | 1.6 | 6.4 | 0.00 | 0.00 | 0.00 | 93 | 1013.5 |
| 20260505123031 | 7 | 150 | 1.6 | 6.4 | 0.00 | 0.00 | 0.00 | 93 | 1013.5 |
| 20260505121532 | 7 | 135 | 1.6 | 4.8 | 0.00 | 0.00 | 0.00 | 93 | 1013.5 |
| 20260505120105 | 7 | 144 | 3.2 | 8.0 | 0.00 | 0.00 | 0.00 | 93 | 1013.5 |
| 20260505113029 | 7 | 146 | 4.8 | 9.7 | 0.00 | 0.00 | 0.00 | 91 | 1013.4 |
| 20260505111531 | 8 | 144 | 3.2 | 4.8 | 0.00 | 0.00 | 0.00 | 90 | 1013.3 |
| 20260505101531 | 9 | 148 | 3.2 | 9.7 | 0.00 | 0.00 | 0.00 | 86 | 1013.0 |
| 20260505100036 | 9 | 164 | 1.6 | 8.0 | 0.00 | 0.00 | 0.00 | 84 | 1012.9 |
| 20260505094530 | 10 | 148 | 4.8 | 9.7 | 0.00 | 0.00 | 0.00 | 82 | 1012.9 |
| 20260505093031 | 11 | 127 | 3.2 | 8.0 | 0.00 | 0.00 | 0.00 | 80 | 1012.9 |
| 20260505091530 | 11 | 100 | 1.6 | 9.7 | 0.00 | 0.00 | 0.00 | 79 | 1012.8 |
| 20260505090030 | 12 | 145 | 3.2 | 9.7 | 0.00 | 0.00 | 0.00 | 79 | 1012.7 |
| 20260505084532 | 13 | 122 | 0.0 | 8.0 | 0.00 | 0.00 | 0.00 | 79 | 1012.6 |
| 20260505083116 | 13 | 231 | 0.0 | 9.7 | 0.00 | 0.00 | 0.00 | 76 | 1012.6 |
| 20260505064608 | 15 | 178 | 4.8 | 11.3 | 0.00 | 0.00 | 0.00 | 72 | 1012.2 |
| 20260505063029 | 16 | 116 | 1.6 | 16.1 | 0.00 | 0.00 | 0.00 | 71 | 1012.2 |
| 20260505061646 | 16 | 190 | 3.2 | 16.1 | 0.00 | 0.00 | 0.00 | 70 | 1012.3 |
| 20260505060037 | 16 | 187 | 4.8 | 16.1 | 0.00 | 0.00 | 0.00 | 69 | 1012.3 |
| 20260505054530 | 16 | 187 | 4.8 | 14.5 | 0.00 | 0.00 | 0.00 | 69 | 1012.3 |
| 20260505053031 | 16 | 177 | 8.0 | 22.5 | 0.00 | 0.00 | 0.00 | 68 | 1012.2 |
| 20260505051530 | 16 | 160 | 6.4 | 16.1 | 0.00 | 0.00 | 0.00 | 68 | 1012.1 |
| 20260505041531 | 16 | 77 | 1.6 | 9.7 | 0.00 | 0.00 | 0.00 | 58 | 1011.6 |
| 20260505040159 | 16 | 210 | 3.2 | 8.0 | 0.00 | 0.00 | 0.00 | 57 | 1011.3 |
| 20260505034528 | 17 | 194 | 3.2 | 14.5 | 0.00 | 0.00 | 0.00 | 53 | 1011.2 |